Time;durP1;ratioP1;P1;durP2;ratioP2;P2;SDS_P1;SDS_P2;PMS_P1;PMS_P2;Temp;Humidity;BMP_temperature;BMP_pressure;BME280_temperature;BME280_humidity;BME280_pressure;Samples;Min_cycle;Max_cycle;Signal;HPM_P1;HPM_P2
2023/02/22 00:00:44;;;;;;;9.00;3.83;;;;;;;0.58;100.00;95435.63;5008304;28;20589;-73
2023/02/22 00:03:25;;;;;;;7.95;3.60;;;;;;;0.50;100.00;95429.69;5000582;28;20498;-73
2023/02/22 00:05:58;;;;;;;;;;;;;;;0.56;100.00;95427.25;5009763;28;20034;-73
2023/02/22 00:08:29;;;;;;;10.23;3.15;;;;;;;0.63;100.00;95422.81;5007797;28;19933;-73
2023/02/22 00:11:15;;;;;;;7.80;3.60;;;;;;;0.62;100.00;95421.25;5009589;28;20502;-73
2023/02/22 00:13:43;;;;;;;7.82;3.50;;;;;;;0.51;100.00;95420.88;5007082;28;20046;-73
2023/02/22 00:16:16;;;;;;;8.00;3.25;;;;;;;0.37;100.00;95414.19;5009704;28;20409;-73
2023/02/22 00:18:43;;;;;;;6.80;3.35;;;;;;;0.33;100.00;95415.59;5007238;28;20045;-73
2023/02/22 00:21:10;;;;;;;6.18;3.25;;;;;;;0.29;100.00;95417.03;5009794;28;20120;-73
2023/02/22 00:23:38;;;;;;;8.32;3.70;;;;;;;0.23;100.00;95412.66;5007632;28;20092;-73
2023/02/22 00:26:08;;;;;;;11.60;4.00;;;;;;;0.21;100.00;95412.09;5008103;28;20054;-73
2023/02/22 00:28:37;;;;;;;13.07;3.63;;;;;;;0.25;100.00;95421.81;5002441;28;20053;-73
2023/02/22 00:31:05;;;;;;;7.10;3.17;;;;;;;0.20;100.00;95419.03;5005741;28;20049;-73
2023/02/22 00:33:31;;;;;;;7.38;3.15;;;;;;;0.23;100.00;95412.66;5001669;28;20029;-73
2023/02/22 00:35:57;;;;;;;7.63;3.40;;;;;;;0.22;100.00;95416.28;5009193;28;20042;-73
2023/02/22 00:38:23;;;;;;;6.45;3.13;;;;;;;0.16;100.00;95418.69;5008567;28;20034;-72
2023/02/22 00:40:48;;;;;;;5.18;3.00;;;;;;;0.13;100.00;95419.09;5007386;28;20041;-72
2023/02/22 00:43:14;;;;;;;5.82;3.17;;;;;;;0.11;100.00;95415.91;5004748;28;20053;-72
2023/02/22 00:45:40;;;;;;;6.78;3.63;;;;;;;0.15;100.00;95411.13;5009084;28;20041;-72
2023/02/22 00:48:07;;;;;;;7.75;3.55;;;;;;;0.13;100.00;95408.75;5008151;28;20053;-72
2023/02/22 00:50:33;;;;;;;7.15;3.40;;;;;;;0.05;100.00;95403.78;5005103;28;20125;-73
2023/02/22 00:53:00;;;;;;;7.13;3.40;;;;;;;0.03;100.00;95403.22;5007251;28;20038;-73
2023/02/22 00:55:29;;;;;;;10.65;3.70;;;;;;;0.06;100.00;95407.97;5006535;28;20042;-72
2023/02/22 00:57:56;;;;;;;6.97;3.55;;;;;;;0.03;100.00;95399.81;5007701;28;20041;-72
2023/02/22 01:00:26;;;;;;;7.57;3.65;;;;;;;-0.02;100.00;95400.44;4996236;28;20037;-73
2023/02/22 01:02:52;;;;;;;8.13;3.35;;;;;;;0.05;100.00;95396.03;5004958;28;20034;-73
2023/02/22 01:05:20;;;;;;;6.65;3.28;;;;;;;0.01;100.00;95394.84;5011402;28;20442;-72
2023/02/22 01:07:46;;;;;;;10.57;3.90;;;;;;;-0.01;100.00;95394.28;5009300;28;20042;-72
2023/02/22 01:10:12;;;;;;;10.32;3.45;;;;;;;0.09;100.00;95393.84;5011928;28;20115;-72
2023/02/22 01:12:38;;;;;;;8.25;3.70;;;;;;;0.05;100.00;95390.84;5012165;28;20042;-71
2023/02/22 01:15:09;;;;;;;11.38;3.58;;;;;;;-0.03;100.00;95398.84;5011596;28;20053;-72
2023/02/22 01:17:36;;;;;;;7.38;3.40;;;;;;;-0.05;100.00;95390.50;5009920;28;20394;-72
2023/02/22 01:20:09;;;;;;;7.35;3.22;;;;;;;-0.13;100.00;95386.38;5010566;28;20034;-72
2023/02/22 01:22:36;;;;;;;6.45;3.15;;;;;;;-0.14;100.00;95382.19;5010443;28;20045;-72
2023/02/22 01:25:05;;;;;;;10.35;3.88;;;;;;;-0.15;100.00;95383.16;5012473;28;20066;-71
2023/02/22 01:27:30;;;;;;;12.65;3.60;;;;;;;-0.18;100.00;95381.78;5008441;28;20038;-72
2023/02/22 01:29:56;;;;;;;5.75;3.25;;;;;;;-0.21;100.00;95382.19;5009710;28;20041;-72
2023/02/22 01:32:21;;;;;;;7.38;3.40;;;;;;;-0.19;100.00;95380.22;5009233;28;20409;-72
2023/02/22 01:34:47;;;;;;;9.25;3.70;;;;;;;-0.23;100.00;95384.19;5010877;28;20493;-72
2023/02/22 01:37:12;;;;;;;6.20;3.10;;;;;;;-0.25;100.00;95385.41;5005329;28;20034;-72
2023/02/22 01:39:38;;;;;;;7.05;3.30;;;;;;;-0.22;100.00;95380.59;5011817;28;20052;-72
2023/02/22 01:42:03;;;;;;;7.97;3.40;;;;;;;-0.25;100.00;95373.25;5005710;28;20529;-72
2023/02/22 01:44:35;;;;;;;4.85;2.92;;;;;;;-0.30;100.00;95375.69;5011225;28;20061;-71
2023/02/22 01:47:03;;;;;;;5.82;2.92;;;;;;;-0.29;100.00;95379.03;5010308;28;20409;-72
2023/02/22 01:49:35;;;;;;;6.25;3.30;;;;;;;-0.27;100.00;95372.69;5010176;28;20046;-72
2023/02/22 01:52:03;;;;;;;8.43;3.50;;;;;;;-0.29;100.00;95374.66;5008560;28;20034;-73
2023/02/22 01:54:36;;;;;;;8.35;3.53;;;;;;;-0.38;100.00;95373.31;5011831;28;20042;-72
2023/02/22 01:57:11;;;;;;;7.35;3.65;;;;;;;-0.32;100.00;95374.28;5010332;28;20521;-74
2023/02/22 01:59:42;;;;;;;6.82;3.42;;;;;;;-0.40;100.00;95367.56;5006746;28;20038;-72
2023/02/22 02:02:07;;;;;;;8.65;3.75;;;;;;;-0.39;100.00;95377.69;5008034;28;20053;-73
2023/02/22 02:04:35;;;;;;;6.07;3.38;;;;;;;-0.37;100.00;95374.91;5006455;28;20058;-72
2023/02/22 02:07:04;;;;;;;9.88;3.97;;;;;;;-0.36;100.00;95368.72;5011279;28;20045;-72
2023/02/22 02:09:43;;;;;;;6.05;3.45;;;;;;;-0.43;100.00;95370.53;5011379;28;20448;-72
2023/02/22 02:12:14;;;;;;;7.93;3.58;;;;;;;-0.41;100.00;95366.75;5009546;28;20045;-72
2023/02/22 02:14:42;;;;;;;8.40;3.35;;;;;;;-0.42;100.00;95364.38;5009520;28;20042;-73
2023/02/22 02:17:11;;;;;;;8.07;3.55;;;;;;;-0.46;100.00;95353.66;5010937;28;20050;-73
2023/02/22 02:19:36;;;;;;;7.25;3.70;;;;;;;-0.40;100.00;95352.81;5007600;28;20070;-73
2023/02/22 02:22:15;;;;;;;7.43;3.28;;;;;;;-0.48;100.00;95349.66;5008212;28;20624;-72
2023/02/22 02:25:10;;;;;;;7.55;3.45;;;;;;;-0.44;100.00;95348.28;5009393;28;20050;-73
2023/02/22 02:27:46;;;;;;;9.45;3.00;;;;;;;-0.43;100.00;95347.25;5005700;28;20561;-73
2023/02/22 02:30:42;;;;;;;7.18;3.47;;;;;;;-0.21;100.00;95340.81;5005294;28;20510;-73
2023/02/22 02:33:16;;;;;;;5.82;3.00;;;;;;;-0.39;100.00;95338.09;5008252;28;20050;-72
2023/02/22 02:35:48;;;;;;;;;;;;;;;-0.41;100.00;95329.75;5010769;28;20034;-73
2023/02/22 02:38:35;;;;;;;6.65;3.28;;;;;;;-0.36;100.00;95324.75;5008108;28;19925;-73
2023/02/22 02:41:09;;;;;;;5.95;3.00;;;;;;;-0.47;100.00;95326.19;5008586;28;20034;-73
2023/02/22 02:43:46;;;;;;;5.75;3.20;;;;;;;-0.47;100.00;95330.59;5010730;28;20042;-73
2023/02/22 02:46:30;;;;;;;5.95;3.05;;;;;;;-0.43;100.00;95321.41;5009004;28;20579;-73
2023/02/22 02:49:05;;;;;;;8.38;3.20;;;;;;;-0.38;100.00;95319.00;5006663;28;20042;-73
2023/02/22 02:51:38;;;;;;;8.90;3.38;;;;;;;-0.43;100.00;95316.22;5008048;28;20572;-73
2023/02/22 02:54:06;;;;;;;6.40;3.22;;;;;;;-0.44;100.00;95309.50;5011139;28;20054;-73
2023/02/22 02:56:32;;;;;;;7.05;3.08;;;;;;;-0.47;100.00;95315.06;5008981;28;20100;-73
2023/02/22 02:58:57;;;;;;;10.07;3.83;;;;;;;-0.47;100.00;95297.75;5008669;28;20108;-73
2023/02/22 03:01:39;;;;;;;5.85;2.83;;;;;;;-0.46;100.00;95306.28;5009582;28;20046;-73
2023/02/22 03:04:38;;;;;;;5.60;2.85;;;;;;;-0.50;100.00;95307.69;5009728;28;20042;-73
2023/02/22 03:07:09;;;;;;;5.30;2.67;;;;;;;-0.57;100.00;95300.78;5009092;28;20049;-73
2023/02/22 03:10:01;;;;;;;9.10;3.33;;;;;;;-0.57;100.00;95308.53;5009424;28;20041;-73
2023/02/22 03:12:30;;;;;;;5.70;3.05;;;;;;;-0.57;100.00;95300.78;5010423;28;20049;-73
2023/02/22 03:15:12;;;;;;;7.90;3.30;;;;;;;-0.54;100.00;95310.69;5008614;28;20038;-73
2023/02/22 03:17:40;;;;;;;9.88;3.47;;;;;;;-0.54;100.00;95290.03;5025088;28;20080;-73
2023/02/22 03:20:21;;;;;;;5.90;3.08;;;;;;;-0.55;100.00;95293.63;5006566;28;20623;-73
2023/02/22 03:23:09;;;;;;;7.30;3.08;;;;;;;-0.58;100.00;95288.84;5010137;28;20042;-73
2023/02/22 03:25:57;;;;;;;8.45;3.10;;;;;;;-0.56;100.00;95286.84;5004803;28;20100;-73
2023/02/22 03:28:26;;;;;;;7.85;3.13;;;;;;;-0.51;100.00;95286.25;5000853;28;20506;-72
2023/02/22 03:30:54;;;;;;;6.45;2.70;;;;;;;-0.60;100.00;95285.69;5007534;28;20038;-73
2023/02/22 03:33:32;;;;;;;6.35;2.88;;;;;;;-0.59;100.00;95292.44;5007924;28;20160;-73
2023/02/22 03:36:08;;;;;;;5.60;2.83;;;;;;;-0.66;100.00;95291.66;5009477;28;20049;-73
2023/02/22 03:38:36;;;;;;;8.82;2.70;;;;;;;-0.62;100.00;95292.81;5006010;28;20061;-73
2023/02/22 03:41:06;;;;;;;6.20;2.92;;;;;;;-0.55;100.00;95301.38;5007285;28;20042;-73
2023/02/22 03:43:40;;;;;;;6.65;2.90;;;;;;;-0.57;100.00;95298.19;5009114;28;20041;-73
2023/02/22 03:46:09;;;;;;;6.30;3.00;;;;;;;-0.57;100.00;95305.94;5010460;28;20116;-73
2023/02/22 03:48:43;;;;;;;6.57;3.15;;;;;;;-0.61;100.00;95312.50;5005485;28;20052;-72
2023/02/22 03:51:13;;;;;;;8.00;2.70;;;;;;;-0.62;100.00;95308.31;5010159;28;20050;-73
2023/02/22 03:53:40;;;;;;;8.63;3.28;;;;;;;-0.71;100.00;95304.41;5007720;28;20042;-73
2023/02/22 03:56:09;;;;;;;5.93;2.53;;;;;;;-0.74;100.00;95307.38;5006734;28;20041;-72
2023/02/22 03:58:37;;;;;;;6.13;2.80;;;;;;;-0.78;100.00;95304.41;5005770;28;20521;-72
2023/02/22 04:01:03;;;;;;;5.38;2.72;;;;;;;-0.74;100.00;95310.75;5007320;28;20045;-73
2023/02/22 04:03:28;;;;;;;6.20;2.90;;;;;;;-0.67;100.00;95322.88;5002887;28;20053;-73
2023/02/22 04:05:54;;;;;;;5.53;2.83;;;;;;;-0.67;100.00;95309.97;5009686;28;20046;-73
2023/02/22 04:08:19;;;;;;;8.75;2.83;;;;;;;-0.70;100.00;95311.16;5007837;28;20037;-73
2023/02/22 04:10:45;;;;;;;5.55;2.60;;;;;;;-0.77;100.00;95306.00;5008482;28;20034;-73
2023/02/22 04:13:13;;;;;;;5.55;2.83;;;;;;;-0.74;100.00;95309.97;5006490;28;20452;-73
2023/02/22 04:15:39;;;;;;;6.13;2.88;;;;;;;-0.76;100.00;95309.38;5008765;28;20050;-73
2023/02/22 04:18:04;;;;;;;4.22;2.40;;;;;;;-0.75;100.00;95304.03;5008346;28;20042;-72
2023/02/22 04:20:30;;;;;;;7.93;3.00;;;;;;;-0.82;100.00;95302.44;5006476;28;20064;-72
2023/02/22 04:22:56;;;;;;;6.18;2.97;;;;;;;-0.80;100.00;95298.66;5008884;28;20524;-72
2023/02/22 04:25:22;;;;;;;4.85;2.75;;;;;;;-0.94;100.00;95297.88;5009239;28;20042;-72
2023/02/22 04:27:49;;;;;;;7.93;3.10;;;;;;;-1.01;100.00;95294.50;5007497;28;20387;-73
2023/02/22 04:30:17;;;;;;;4.95;2.85;;;;;;;-0.94;100.00;95299.69;5001914;28;20045;-72
2023/02/22 04:32:43;;;;;;;7.35;2.80;;;;;;;-0.91;100.00;95283.78;5006379;28;20046;-72
2023/02/22 04:35:09;;;;;;;5.50;2.88;;;;;;;-1.01;100.00;95289.34;5008300;28;20048;-72
2023/02/22 04:37:35;;;;;;;6.03;3.03;;;;;;;-0.94;100.00;95297.09;5009523;28;20044;-72
2023/02/22 04:40:01;;;;;;;10.07;3.28;;;;;;;-0.90;100.00;95285.38;5012013;28;20056;-72
2023/02/22 04:42:27;;;;;;;5.75;2.75;;;;;;;-0.93;100.00;95286.56;5007157;28;20042;-72
2023/02/22 04:44:53;;;;;;;5.25;2.88;;;;;;;-0.92;100.00;95283.00;5011412;28;20457;-72
2023/02/22 04:47:18;;;;;;;5.35;2.97;;;;;;;-0.95;100.00;95283.41;5012517;28;20111;-72
2023/02/22 04:49:44;;;;;;;7.40;2.60;;;;;;;-0.94;100.00;95284.97;5007587;28;20099;-72
2023/02/22 04:52:10;;;;;;;8.30;3.20;;;;;;;-0.99;100.00;95277.03;5012612;28;20047;-72
2023/02/22 04:54:36;;;;;;;4.00;2.53;;;;;;;-0.98;100.00;95273.44;5013111;28;20092;-72
2023/02/22 04:57:01;;;;;;;11.25;3.30;;;;;;;-1.05;100.00;95280.41;5012491;28;20042;-72
2023/02/22 04:59:27;;;;;;;7.35;2.70;;;;;;;-1.08;100.00;95278.25;5007825;28;20069;-72
2023/02/22 05:01:52;;;;;;;5.38;2.72;;;;;;;-1.10;100.00;95280.25;5009789;28;20038;-72
2023/02/22 05:04:18;;;;;;;4.93;2.58;;;;;;;-1.10;100.00;95285.41;5007663;28;20069;-72
2023/02/22 05:06:43;;;;;;;4.35;2.60;;;;;;;-1.06;100.00;95286.59;5012330;28;20046;-72
2023/02/22 05:09:09;;;;;;;4.82;2.53;;;;;;;-1.07;100.00;95280.63;5010491;28;20046;-72
2023/02/22 05:11:34;;;;;;;5.78;2.70;;;;;;;-1.10;100.00;95280.25;5010850;28;20041;-72
2023/02/22 05:14:00;;;;;;;5.88;2.65;;;;;;;-1.12;100.00;95277.06;5012928;28;20461;-72
2023/02/22 05:16:26;;;;;;;4.90;2.60;;;;;;;-1.23;100.00;95271.50;5012620;28;20037;-72
2023/02/22 05:18:51;;;;;;;4.93;2.50;;;;;;;-1.15;100.00;95272.28;5012824;28;20041;-72
2023/02/22 05:21:17;;;;;;;5.25;2.72;;;;;;;-1.15;100.00;95272.28;5006995;28;20042;-72
2023/02/22 05:23:42;;;;;;;5.78;3.20;;;;;;;-1.16;100.00;95270.72;5012862;28;20117;-72
2023/02/22 05:26:09;;;;;;;5.13;2.88;;;;;;;-1.14;100.00;95263.56;5011815;28;20156;-72
2023/02/22 05:28:35;;;;;;;8.02;3.08;;;;;;;-1.22;100.00;95267.94;5012613;28;20416;-72
2023/02/22 05:31:00;;;;;;;5.00;2.78;;;;;;;-1.33;100.00;95260.81;5007653;28;20034;-72
2023/02/22 05:33:26;;;;;;;5.60;3.10;;;;;;;-1.33;100.00;95260.81;5009536;28;20042;-72
2023/02/22 05:35:51;;;;;;;6.25;2.97;;;;;;;-1.29;100.00;95262.00;5011893;28;20038;-73
2023/02/22 05:38:17;;;;;;;5.82;2.75;;;;;;;-1.22;100.00;95262.78;5012538;28;20556;-72
2023/02/22 05:40:43;;;;;;;9.32;3.10;;;;;;;-1.23;100.00;95263.75;5009587;28;20049;-72
2023/02/22 05:43:09;;;;;;;5.80;3.53;;;;;;;-1.26;100.00;95271.91;5007098;28;20100;-72
2023/02/22 05:45:35;;;;;;;6.95;2.90;;;;;;;-1.25;100.00;95265.75;5010792;28;20045;-72
2023/02/22 05:48:01;;;;;;;5.32;2.90;;;;;;;-1.14;100.00;95263.56;5011253;28;20129;-72
2023/02/22 05:50:27;;;;;;;6.07;3.10;;;;;;;-1.25;100.00;95263.19;5005144;28;20037;-72
2023/02/22 05:52:54;;;;;;;5.30;3.38;;;;;;;-1.33;100.00;95265.97;5009533;28;20092;-72
2023/02/22 05:55:22;;;;;;;6.10;3.47;;;;;;;-1.35;100.00;95262.81;5012642;28;20038;-72
2023/02/22 05:57:48;;;;;;;8.77;3.30;;;;;;;-1.40;100.00;95254.84;5009951;28;20042;-72
2023/02/22 06:00:29;;;;;;;6.55;3.05;;;;;;;-1.43;100.00;95260.41;5009962;28;20042;-72
2023/02/22 06:03:01;;;;;;;5.57;2.88;;;;;;;-1.50;100.00;95260.41;5007971;28;20045;-72
2023/02/22 06:05:27;;;;;;;8.77;3.40;;;;;;;-1.51;100.00;95263.19;5010838;28;20073;-72
2023/02/22 06:07:53;;;;;;;12.35;4.88;;;;;;;-1.40;100.00;95249.69;5011302;28;20046;-72
2023/02/22 06:10:19;;;;;;;13.35;4.97;;;;;;;-1.36;100.00;95256.03;5011550;28;20049;-72
2023/02/22 06:12:46;;;;;;;9.52;3.90;;;;;;;-1.38;100.00;95258.00;5007505;28;20056;-72
2023/02/22 06:15:12;;;;;;;7.03;3.38;;;;;;;-1.33;100.00;95257.44;5009191;28;20061;-72
2023/02/22 06:17:40;;;;;;;5.78;3.30;;;;;;;-1.39;100.00;95256.44;5011770;28;20494;-72
2023/02/22 06:20:08;;;;;;;6.70;3.28;;;;;;;-1.35;100.00;95262.00;5010320;28;20046;-72
2023/02/22 06:22:34;;;;;;;8.25;3.80;;;;;;;-1.34;100.00;95254.03;5006203;28;20115;-72
2023/02/22 06:25:02;;;;;;;9.10;3.70;;;;;;;-1.34;100.00;95264.38;5009879;28;20490;-72
2023/02/22 06:27:31;;;;;;;9.30;3.92;;;;;;;-1.35;100.00;95267.97;5012090;28;20042;-72
2023/02/22 06:29:57;;;;;;;7.47;3.45;;;;;;;-1.33;100.00;95260.81;5003028;28;20100;-72
2023/02/22 06:32:23;;;;;;;7.55;3.63;;;;;;;-1.35;100.00;95267.97;5007389;28;20038;-72
2023/02/22 06:34:49;;;;;;;8.70;4.50;;;;;;;-1.30;100.00;95265.56;5006997;28;20042;-72
2023/02/22 06:37:14;;;;;;;11.05;3.75;;;;;;;-1.22;100.00;95267.94;5010306;28;20092;-72
2023/02/22 06:39:40;;;;;;;6.82;3.33;;;;;;;-1.19;100.00;95276.25;5009644;28;20093;-73
2023/02/22 06:42:05;;;;;;;6.05;3.35;;;;;;;-1.17;100.00;95266.56;5009712;28;20092;-73
2023/02/22 06:44:31;;;;;;;5.13;3.03;;;;;;;-1.09;100.00;95276.66;5007826;28;20046;-73
2023/02/22 06:46:58;;;;;;;6.28;2.67;;;;;;;-1.05;100.00;95278.66;5010428;28;20061;-73
2023/02/22 06:49:25;;;;;;;7.60;3.13;;;;;;;-1.04;100.00;95279.44;5006176;28;20057;-73
2023/02/22 06:51:51;;;;;;;6.93;3.22;;;;;;;-0.95;100.00;95278.22;5011020;28;20048;-73
2023/02/22 06:54:17;;;;;;;7.82;3.10;;;;;;;-0.90;100.00;95281.00;5008693;28;20064;-72
2023/02/22 06:56:43;;;;;;;6.10;2.95;;;;;;;-0.82;100.00;95281.75;5009658;28;20041;-73
2023/02/22 06:59:08;;;;;;;7.43;3.28;;;;;;;-0.80;100.00;95287.53;5005826;28;20045;-74
2023/02/22 07:01:34;;;;;;;8.98;3.58;;;;;;;-0.75;100.00;95285.13;5011182;28;20042;-73
2023/02/22 07:04:00;;;;;;;16.80;3.10;;;;;;;-0.66;100.00;95296.84;5009742;28;20038;-73
2023/02/22 07:06:25;;;;;;;7.43;3.03;;;;;;;-0.62;100.00;95292.03;5008834;28;20524;-74
2023/02/22 07:08:51;;;;;;;8.98;3.40;;;;;;;-0.69;100.00;95297.22;5010773;28;20060;-76
2023/02/22 07:11:17;;;;;;;7.63;3.20;;;;;;;-0.54;100.00;95294.41;5012296;28;20044;-76
2023/02/22 07:13:42;;;;;;;6.78;3.15;;;;;;;-0.44;100.00;95293.97;5007318;28;22050;-75
2023/02/22 07:16:08;;;;;;;8.40;2.90;;;;;;;-0.42;100.00;95291.97;5009404;28;20096;-76
2023/02/22 07:18:33;;;;;;;5.63;3.22;;;;;;;-0.22;100.00;95291.88;5008465;28;20038;-76
2023/02/22 07:20:59;;;;;;;8.90;3.08;;;;;;;-0.16;100.00;95295.44;5010224;28;20117;-76
2023/02/22 07:23:25;;;;;;;5.55;3.13;;;;;;;-0.13;100.00;95289.84;5015779;28;20037;-80
2023/02/22 07:25:51;;;;;;;13.80;3.17;;;;;;;-0.05;100.00;95297.38;5012449;28;20045;-77
2023/02/22 07:28:17;;;;;;;10.98;3.40;;;;;;;0.01;100.00;95296.53;5010807;28;20038;-77
2023/02/22 07:30:43;;;;;;;6.45;3.00;;;;;;;0.09;100.00;95282.56;5009623;28;20057;-76
2023/02/22 07:33:10;;;;;;;8.35;3.33;;;;;;;0.21;100.00;95290.47;5006598;28;20042;-74
2023/02/22 07:35:47;;;;;;;7.93;3.60;;;;;;;0.57;100.00;95283.81;5010373;28;20042;-76
2023/02/22 07:38:14;;;;;;;10.95;2.90;;;;;;;0.97;100.00;95288.66;5006053;28;20038;-74
2023/02/22 07:40:41;;;;;;;7.60;3.70;;;;;;;0.89;100.00;95283.75;5005776;28;20042;-71
2023/02/22 07:43:19;;;;;;;8.18;3.42;;;;;;;0.93;100.00;95277.13;5008340;28;20112;-70
2023/02/22 07:45:46;;;;;;;7.18;3.72;;;;;;;0.98;100.00;95277.28;5005806;28;20046;-71
2023/02/22 07:48:12;;;;;;;7.43;3.13;;;;;;;1.07;100.00;95267.44;5007116;28;20069;-73
2023/02/22 07:50:39;;;;;;;12.23;3.58;;;;;;;1.16;100.00;95260.94;5011029;28;20045;-73
2023/02/22 07:53:10;;;;;;;6.20;3.20;;;;;;;1.42;100.00;95261.66;5006332;28;20049;-73
2023/02/22 07:55:36;;;;;;;8.82;2.90;;;;;;;1.92;100.00;95268.44;5005344;28;20042;-74
2023/02/22 07:58:05;;;;;;;7.22;3.13;;;;;;;2.48;100.00;95267.22;5009805;28;20092;-73
2023/02/22 08:00:34;;;;;;;5.88;3.03;;;;;;;2.85;100.00;95261.81;5006800;28;20048;-73
2023/02/22 08:03:01;;;;;;;5.57;2.90;;;;;;;3.24;100.00;95259.53;5004678;28;20052;-73
2023/02/22 08:05:29;;;;;;;7.43;2.95;;;;;;;3.46;100.00;95266.72;5009944;28;20042;-73
2023/02/22 08:07:54;;;;;;;4.95;2.22;;;;;;;3.64;100.00;95258.75;5006124;28;20049;-73
2023/02/22 08:10:22;;;;;;;6.75;2.35;;;;;;;3.80;100.00;95266.84;5006354;28;20046;-73
2023/02/22 08:12:48;;;;;;;8.77;2.28;;;;;;;3.88;100.00;95256.09;5007797;28;20113;-73
2023/02/22 08:15:29;;;;;;;4.65;2.40;;;;;;;3.95;100.00;95259.34;5005355;28;20034;-73
2023/02/22 08:17:57;;;;;;;4.93;2.38;;;;;;;3.96;100.00;95260.13;5005721;28;20046;-72
2023/02/22 08:20:23;;;;;;;5.60;2.40;;;;;;;3.97;100.00;95252.06;5008536;28;20038;-73
2023/02/22 08:22:48;;;;;;;6.80;2.35;;;;;;;4.05;100.00;95247.50;5009431;28;20092;-73
2023/02/22 08:25:16;;;;;;;8.20;2.58;;;;;;;4.25;100.00;95247.88;5006155;28;20045;-73
2023/02/22 08:27:42;;;;;;;7.40;2.22;;;;;;;4.52;100.00;95244.63;5007592;28;20038;-73
2023/02/22 08:30:14;;;;;;;6.20;2.35;;;;;;;4.62;100.00;95242.16;5006849;28;20061;-73
2023/02/22 08:32:39;;;;;;;7.50;2.40;;;;;;;4.78;100.00;95250.22;5004301;28;20038;-73
2023/02/22 08:35:05;;;;;;;7.57;2.70;;;;;;;4.89;100.00;95248.56;5008061;28;20087;-73
2023/02/22 08:37:30;;;;;;;8.60;2.30;;;;;;;5.08;100.00;95238.66;5009694;28;20394;-73
2023/02/22 08:39:56;;;;;;;4.43;2.30;;;;;;;4.99;100.00;95235.66;5009105;28;20044;-73
2023/02/22 08:42:22;;;;;;;5.88;2.40;;;;;;;4.86;100.00;95228.97;5005680;28;20038;-73
2023/02/22 08:44:47;;;;;;;5.70;2.50;;;;;;;4.89;100.00;95236.31;5005131;28;20030;-73
2023/02/22 08:47:13;;;;;;;8.80;2.85;;;;;;;5.05;100.00;95223.50;5007893;28;20053;-73
2023/02/22 08:49:38;;;;;;;7.72;2.50;;;;;;;5.03;100.00;95224.50;5008856;28;20512;-73
2023/02/22 08:52:04;;;;;;;6.00;2.47;;;;;;;5.15;100.00;95218.41;5008168;28;20413;-73
2023/02/22 08:54:30;;;;;;;5.18;2.30;;;;;;;5.25;100.00;95218.53;4999458;28;20088;-73
2023/02/22 08:56:55;;;;;;;5.93;2.13;;;;;;;5.51;100.00;95226.66;5005505;28;20065;-73
2023/02/22 08:59:21;;;;;;;3.42;1.90;;;;;;;5.69;100.00;95223.72;5008727;28;20044;-73
2023/02/22 09:01:46;;;;;;;7.22;2.20;;;;;;;5.79;100.00;95222.25;5010400;28;20464;-73
2023/02/22 09:04:12;;;;;;;6.53;2.08;;;;;;;5.79;100.00;95217.03;5006396;28;20044;-73
2023/02/22 09:06:41;;;;;;;6.78;2.40;;;;;;;5.95;100.00;95216.16;5009980;28;20437;-72
2023/02/22 09:09:07;;;;;;;2.45;1.90;;;;;;;6.11;100.00;95218.94;5009816;28;20073;-73
2023/02/22 09:11:32;;;;;;;6.53;2.28;;;;;;;6.22;100.00;95215.34;5007301;28;20497;-73
2023/02/22 09:13:58;;;;;;;4.10;1.92;;;;;;;6.28;100.00;95214.38;5014342;28;20022;-72
2023/02/22 09:16:23;;;;;;;5.15;2.03;;;;;;;6.41;100.00;95213.97;5035111;28;20033;-72
2023/02/22 09:18:49;;;;;;;5.47;2.50;;;;;;;6.57;100.00;95206.25;5031349;28;20014;-72
2023/02/22 09:21:14;;;;;;;4.22;2.00;;;;;;;6.76;100.00;95217.06;5023333;28;20033;-73
2023/02/22 09:23:40;;;;;;;7.40;2.10;;;;;;;6.84;100.00;95210.56;5036912;28;20029;-71
2023/02/22 09:26:09;;;;;;;9.63;2.22;;;;;;;7.15;99.87;95210.75;5039328;28;20086;-72
2023/02/22 09:28:35;;;;;;;6.90;2.25;;;;;;;7.77;91.27;95202.09;5032781;28;20046;-72
2023/02/22 09:31:01;;;;;;;4.10;1.80;;;;;;;8.25;87.47;95206.34;5032849;28;20039;-72
2023/02/22 09:33:26;;;;;;;6.13;1.90;;;;;;;8.51;82.97;95211.63;5034118;28;20036;-72
2023/02/22 09:35:52;;;;;;;5.90;2.10;;;;;;;8.46;84.47;95201.91;5039680;28;20138;-72
2023/02/22 09:38:28;;;;;;;5.63;1.60;;;;;;;8.46;86.86;95209.78;5038799;28;20026;-72
2023/02/22 09:41:04;;;;;;;6.97;1.90;;;;;;;8.52;84.48;95200.88;5022809;28;20546;-73
2023/02/22 09:43:40;;;;;;;3.97;1.63;;;;;;;8.64;77.69;95203.22;5010944;28;20034;-72
2023/02/22 09:46:44;;;;;;;4.00;1.58;;;;;;;8.80;78.57;95196.88;5007315;28;20042;-73
2023/02/22 09:49:26;;;;;;;3.65;1.83;;;;;;;8.94;85.03;95196.34;5006002;28;20116;-74
2023/02/22 09:51:58;;;;;;;3.80;2.10;;;;;;;8.84;82.14;95192.69;5011345;28;20070;-75
2023/02/22 09:54:39;;;;;;;9.10;2.15;;;;;;;9.08;79.75;95192.13;5014329;28;20513;-73
2023/02/22 09:57:10;;;;;;;3.50;1.80;;;;;;;9.22;75.46;95188.91;5011570;28;20053;-73
2023/02/22 09:59:41;;;;;;;4.03;1.83;;;;;;;9.46;75.85;95184.63;5008797;28;20034;-74
2023/02/22 10:02:18;;;;;;;7.07;1.80;;;;;;;9.75;76.85;95183.94;5007107;28;20037;-75
2023/02/22 10:04:56;;;;;;;8.48;2.00;;;;;;;10.15;74.69;95176.06;5011791;28;20203;-75
2023/02/22 10:07:29;;;;;;;6.85;2.08;;;;;;;10.70;70.60;95181.16;5012628;28;20084;-74
2023/02/22 10:09:57;;;;;;;12.27;2.65;;;;;;;11.17;67.25;95169.09;5011028;28;20050;-75
2023/02/22 10:12:37;;;;;;;6.82;2.22;;;;;;;11.48;66.13;95171.38;5011824;28;20042;-74
2023/02/22 10:15:29;;;;;;;4.60;2.08;;;;;;;12.68;59.89;95171.22;5009057;28;20042;-76
2023/02/22 10:18:16;;;;;;;5.47;1.90;;;;;;;13.47;57.14;95165.03;5008467;28;20108;-75
2023/02/22 10:21:01;;;;;;;8.30;1.98;;;;;;;14.90;52.13;95160.19;5002944;28;20034;-75
2023/02/22 10:23:44;;;;;;;6.10;1.88;;;;;;;15.27;49.26;95158.16;5009738;28;20112;-74
2023/02/22 10:26:11;;;;;;;8.52;2.28;;;;;;;15.50;45.37;95160.69;5007947;28;20042;-75
2023/02/22 10:28:52;;;;;;;5.35;2.08;;;;;;;16.30;44.16;95155.13;5010302;28;20045;-74
2023/02/22 10:31:26;;;;;;;2.97;1.60;;;;;;;16.31;42.51;95156.69;5009798;28;20042;-74
2023/02/22 10:33:58;;;;;;;13.45;1.90;;;;;;;16.33;42.97;95165.13;5009759;28;20042;-74
2023/02/22 10:36:25;;;;;;;3.03;1.60;;;;;;;16.64;42.29;95156.19;5005062;28;20042;-75
2023/02/22 10:39:19;;;;;;;4.75;1.73;;;;;;;16.40;42.36;95154.81;5011037;28;20076;-76
2023/02/22 10:41:51;;;;;;;4.53;1.90;;;;;;;15.88;41.35;95162.81;5009881;28;20055;-74
2023/02/22 10:44:17;;;;;;;4.22;1.75;;;;;;;15.94;41.77;95154.34;5009075;28;20053;-75
2023/02/22 10:46:43;;;;;;;4.55;1.70;;;;;;;17.19;41.31;95140.53;5015929;28;20046;-76
2023/02/22 10:49:11;;;;;;;4.57;1.80;;;;;;;17.17;40.79;95148.03;5012717;28;20464;-73
2023/02/22 10:51:38;;;;;;;5.70;1.92;;;;;;;16.75;43.01;95149.44;5007243;28;20160;-74
2023/02/22 10:54:12;;;;;;;4.50;1.90;;;;;;;17.65;41.77;95138.84;5007667;28;20402;-75
2023/02/22 10:56:54;;;;;;;4.95;1.90;;;;;;;17.96;35.92;95145.72;5007584;28;20061;-75
2023/02/22 10:59:46;;;;;;;6.75;2.05;;;;;;;17.26;37.08;95140.81;5007148;28;20042;-75
2023/02/22 11:02:19;;;;;;;4.00;1.70;;;;;;;16.69;37.80;95140.06;5003465;28;20537;-75
2023/02/22 11:04:51;;;;;;;4.05;1.58;;;;;;;16.98;39.92;95135.91;5008724;28;20132;-75
2023/02/22 11:07:19;;;;;;;3.80;1.70;;;;;;;17.16;40.46;95126.00;5008624;28;20049;-74
2023/02/22 11:09:54;;;;;;;3.10;1.63;;;;;;;17.23;38.32;95125.50;5008242;28;20432;-75
2023/02/22 11:12:42;;;;;;;3.80;1.55;;;;;;;16.92;40.45;95126.56;5007916;28;20548;-75
2023/02/22 11:15:27;;;;;;;6.45;1.80;;;;;;;17.79;38.61;95112.78;5011495;28;20049;-74
2023/02/22 11:17:54;;;;;;;12.68;2.85;;;;;;;17.46;39.26;95116.13;5007519;28;20045;-73
2023/02/22 11:20:33;;;;;;;15.27;2.35;;;;;;;18.66;36.63;95107.75;5008275;28;20030;-73
2023/02/22 11:23:01;;;;;;;2.40;1.60;;;;;;;18.66;35.85;95102.44;5006936;28;20057;-74
2023/02/22 11:25:37;;;;;;;8.65;1.90;;;;;;;18.49;36.15;95104.19;5013467;28;20041;-73
2023/02/22 11:28:13;;;;;;;4.05;1.70;;;;;;;18.29;37.36;95099.72;5013880;28;20065;-76
2023/02/22 11:30:42;;;;;;;5.88;1.50;;;;;;;17.91;36.34;95092.66;5012678;28;20097;-73
2023/02/22 11:33:22;;;;;;;2.40;1.50;;;;;;;18.28;35.82;95098.16;5012545;28;20054;-73
2023/02/22 11:35:51;;;;;;;4.78;1.58;;;;;;;18.55;35.10;95085.31;5014947;28;20046;-76
2023/02/22 11:38:28;;;;;;;3.20;1.60;;;;;;;19.07;34.33;95079.41;5004497;28;20053;-75
2023/02/22 11:41:05;;;;;;;2.60;1.70;;;;;;;18.43;35.54;95078.88;5013723;28;20054;-75